Altonah, Utah
Current Conditions -  °F | °C
As of 9:53 AM on Tuesday 27 Jan 2015 (Local Time) from KVEL Reporting Station
Clear Clear  
Wind Chill:   Ceiling: Unl
Heat Index:   Visibility: 10mi
Dew Point: -3°   Wind: 0mph
Humidity: 70%   Direction: NA
Pressure: 30.33"   Gusts: NA
Location:  40.4°N, 110.29°W
Report Text: KVEL 271653Z AUTO 00000KT 10SM CLR 02/M03 A3033 RMK AO2 SLP290 T00171033
Loading
Personal Weather Stations






























Interactive Weather Map New forecast layout! Learn more

10-Day Weather Forecast

Advertisements
Track Severe Weather on mobile